createdAt,value
2022-08-22T00:01:03.597Z,95996.56
2022-08-22T00:02:45.720Z,96020.38
2022-08-22T00:03:04.492Z,96021.38
2022-08-22T00:03:09.413Z,96022.97
2022-08-22T00:03:10.471Z,96030.31
2022-08-22T00:03:12.645Z,96028.41
2022-08-22T00:03:49.912Z,95996.19
2022-08-22T00:06:16.497Z,96000.06
2022-08-22T00:08:55.658Z,95995.38
2022-08-22T00:11:43.906Z,95991.28
2022-08-22T00:14:17.855Z,95986.09
2022-08-22T00:17:10.035Z,95993.97
2022-08-22T00:20:06.550Z,96000.47
2022-08-22T00:22:56.828Z,95992.38
2022-08-22T00:26:01.527Z,95991.00
2022-08-22T00:28:41.512Z,95987.75
2022-08-22T00:31:36.737Z,95998.22
2022-08-22T00:34:16.030Z,95990.66
2022-08-22T00:36:52.798Z,95990.31
2022-08-22T00:39:21.548Z,95995.84
2022-08-22T00:41:50.967Z,95993.19
2022-08-22T00:44:31.195Z,95995.56
2022-08-22T00:47:34.689Z,95991.34
2022-08-22T00:50:36.711Z,95986.69
2022-08-22T00:53:21.836Z,95993.13
2022-08-22T00:56:03.440Z,95994.19
2022-08-22T00:58:56.065Z,95995.66
2022-08-22T01:01:33.757Z,95994.25
2022-08-22T01:04:40.659Z,95998.03
2022-08-22T01:07:38.273Z,95999.28
2022-08-22T01:10:23.950Z,96004.19
2022-08-22T01:13:16.875Z,95993.31
2022-08-22T01:15:44.780Z,95996.13
2022-08-22T01:18:29.205Z,95994.94
2022-08-22T01:21:02.254Z,95998.38
2022-08-22T01:24:06.504Z,95994.63
2022-08-22T01:26:57.607Z,95999.16
2022-08-22T01:30:02.927Z,95995.94
2022-08-22T01:32:35.387Z,95988.91
2022-08-22T01:35:10.806Z,95994.88
2022-08-22T01:37:52.439Z,95988.66
2022-08-22T01:40:53.599Z,95995.75
2022-08-22T01:43:59.799Z,96001.19
2022-08-22T01:46:49.239Z,95996.97
2022-08-22T01:49:21.705Z,95996.03
2022-08-22T01:51:56.645Z,95988.03
2022-08-22T01:54:45.275Z,95996.09
2022-08-22T01:57:13.396Z,95992.00
2022-08-22T01:59:43.115Z,95998.13
2022-08-22T02:02:09.715Z,95995.69
2022-08-22T02:04:36.305Z,95997.50
2022-08-22T02:07:11.684Z,95998.81
2022-08-22T02:10:08.937Z,96000.75
2022-08-22T02:12:41.831Z,95995.13
2022-08-22T02:15:29.849Z,95996.88
2022-08-22T02:18:05.333Z,96005.59
2022-08-22T02:20:56.203Z,95995.56
2022-08-22T02:23:29.612Z,95995.56
2022-08-22T02:26:02.106Z,95986.72
2022-08-22T02:28:56.960Z,95994.00
2022-08-22T02:31:37.283Z,95993.81
2022-08-22T02:34:36.836Z,95993.63
2022-08-22T02:37:48.096Z,95995.94
2022-08-22T02:40:30.779Z,95992.66
2022-08-22T02:43:12.859Z,95997.41
2022-08-22T02:46:03.520Z,95992.59
2022-08-22T02:48:48.135Z,95984.84
2022-08-22T02:51:36.052Z,95993.28
2022-08-22T02:54:26.341Z,95993.28
2022-08-22T02:57:05.881Z,95990.28
2022-08-22T02:59:59.251Z,95992.38
2022-08-22T03:02:31.612Z,95987.47
2022-08-22T03:05:23.263Z,95989.16
2022-08-22T03:08:05.006Z,95995.56
2022-08-22T03:10:41.027Z,95987.84
2022-08-22T03:13:12.151Z,95982.75
2022-08-22T03:15:49.424Z,95986.03
2022-08-22T03:18:19.662Z,95987.94
2022-08-22T03:21:11.104Z,95981.78
2022-08-22T03:23:49.224Z,95993.63
2022-08-22T03:26:25.647Z,95985.75
2022-08-22T03:29:00.388Z,95978.72
2022-08-22T03:31:29.133Z,95979.00
2022-08-22T03:34:14.285Z,95988.63
2022-08-22T03:36:48.398Z,95982.22
2022-08-22T03:39:37.828Z,95985.81
2022-08-22T03:42:16.440Z,95990.47
2022-08-22T03:44:48.933Z,96000.53
2022-08-22T03:47:34.196Z,96001.41
2022-08-22T03:50:31.511Z,96001.13
2022-08-22T03:53:23.208Z,95997.28
2022-08-22T03:56:15.379Z,96001.13
2022-08-22T03:59:15.802Z,96006.84
2022-08-22T04:02:29.449Z,96003.56
2022-08-22T04:05:28.678Z,96014.53
2022-08-22T04:08:43.935Z,96013.41
2022-08-22T04:11:41.901Z,96015.88
2022-08-22T04:14:24.319Z,96009.25
2022-08-22T04:17:00.132Z,96006.75
2022-08-22T04:19:38.780Z,96008.66
2022-08-22T04:22:35.976Z,96008.31
2022-08-22T04:25:31.462Z,96010.28
2022-08-22T04:28:10.304Z,96013.22
2022-08-22T04:30:46.604Z,96017.31
2022-08-22T04:33:23.550Z,96016.66
2022-08-22T04:36:13.489Z,96016.41
2022-08-22T04:38:43.725Z,96022.72
2022-08-22T04:41:30.350Z,96022.63
2022-08-22T04:44:02.213Z,96022.03
2022-08-22T04:46:46.629Z,96026.59
2022-08-22T04:49:34.746Z,96022.84
2022-08-22T04:52:07.442Z,96016.75
2022-08-22T04:54:57.124Z,96020.34
2022-08-22T04:58:02.086Z,96026.34
2022-08-22T05:01:00.226Z,96024.16
2022-08-22T05:03:28.975Z,96022.19
2022-08-22T05:05:59.701Z,96020.94
2022-08-22T05:08:32.219Z,96034.47
2022-08-22T05:11:02.487Z,96035.56
2022-08-22T05:13:43.210Z,96029.97
2022-08-22T05:16:19.119Z,96032.03
2022-08-22T05:18:54.649Z,96032.31
2022-08-22T05:21:27.449Z,96032.41
2022-08-22T05:24:11.905Z,96031.44
2022-08-22T05:26:42.987Z,96031.44
2022-08-22T05:29:13.573Z,96035.59
2022-08-22T05:31:56.258Z,96031.59
2022-08-22T05:34:26.154Z,96031.34
2022-08-22T05:37:01.959Z,96033.72
2022-08-22T05:39:30.063Z,96038.84
2022-08-22T05:42:00.396Z,96034.81
2022-08-22T05:44:32.238Z,96040.09
2022-08-22T05:47:06.024Z,96037.25
2022-08-22T05:49:53.837Z,96032.03
2022-08-22T05:52:59.375Z,96029.94
2022-08-22T05:55:36.820Z,96033.09
2022-08-22T05:58:24.987Z,96044.34
2022-08-22T06:01:05.047Z,96039.88
2022-08-22T06:03:41.679Z,96045.66
2022-08-22T06:06:16.533Z,96043.94
2022-08-22T06:09:01.629Z,96039.81
2022-08-22T06:11:58.176Z,96043.78
2022-08-22T06:14:38.685Z,96045.22
2022-08-22T06:17:20.551Z,96047.06
2022-08-22T06:19:50.775Z,96045.56
2022-08-22T06:22:24.748Z,96039.19
2022-08-22T06:24:54.083Z,96047.47
2022-08-22T06:27:26.367Z,96039.44
2022-08-22T06:30:03.114Z,96033.06
2022-08-22T06:32:58.460Z,96042.44
2022-08-22T06:35:59.352Z,96051.66
2022-08-22T06:38:34.864Z,96046.47
2022-08-22T06:41:06.877Z,96045.16
2022-08-22T06:43:39.425Z,96056.84
2022-08-22T06:46:07.543Z,96053.81
2022-08-22T06:48:36.200Z,96054.97
2022-08-22T06:51:06.486Z,96055.81
2022-08-22T06:53:35.777Z,96056.84
2022-08-22T06:56:06.000Z,96055.84
2022-08-22T06:58:42.080Z,96057.31
2022-08-22T07:01:50.285Z,96053.41
2022-08-22T07:04:17.957Z,96055.59
2022-08-22T07:06:50.233Z,96059.41
2022-08-22T07:09:22.318Z,96058.31
2022-08-22T07:11:49.655Z,96050.22
2022-08-22T07:14:24.792Z,96050.72
2022-08-22T07:17:01.047Z,96044.88
2022-08-22T07:19:33.320Z,96052.97
2022-08-22T07:22:14.232Z,96048.47
2022-08-22T07:24:47.567Z,96041.59
2022-08-22T07:27:29.351Z,96043.22
2022-08-22T07:30:10.131Z,96045.38
2022-08-22T07:32:46.501Z,96053.22
2022-08-22T07:35:18.562Z,96048.59
2022-08-22T07:38:00.735Z,96043.63
2022-08-22T07:41:00.690Z,96047.22
2022-08-22T07:43:32.859Z,96035.63
2022-08-22T07:46:14.541Z,96042.56
2022-08-22T07:49:08.109Z,96048.84
2022-08-22T07:51:48.180Z,96046.66
2022-08-22T07:54:22.423Z,96041.59
2022-08-22T07:57:01.797Z,96043.25
2022-08-22T07:59:29.748Z,96039.88
2022-08-22T08:01:59.858Z,96032.13
2022-08-22T08:04:36.886Z,96033.78
2022-08-22T08:07:09.143Z,96029.91
2022-08-22T08:09:41.289Z,96029.91
2022-08-22T08:12:11.656Z,96036.31
2022-08-22T08:14:49.539Z,96036.31
2022-08-22T08:20:17.884Z,96036.50
2022-08-22T08:22:46.223Z,96042.91
2022-08-22T08:25:17.595Z,96039.81
2022-08-22T08:28:03.929Z,96047.47
2022-08-22T08:30:56.164Z,96043.03
2022-08-22T08:33:28.242Z,96037.75
2022-08-22T08:36:20.099Z,96027.63
2022-08-22T08:38:53.421Z,96031.97
2022-08-22T08:41:41.022Z,96023.81
2022-08-22T08:44:35.798Z,96025.38
2022-08-22T08:47:15.279Z,96020.25
2022-08-22T08:49:57.223Z,96023.84
2022-08-22T08:52:42.616Z,96027.00
2022-08-22T08:55:27.651Z,96008.16
2022-08-22T08:58:12.844Z,96030.06
2022-08-22T09:00:54.864Z,96020.63
2022-08-22T09:03:35.771Z,96024.50
2022-08-22T09:06:28.794Z,96023.03
2022-08-22T09:09:14.203Z,96017.56
2022-08-22T09:12:08.582Z,96009.72
2022-08-22T09:15:01.513Z,96014.44
2022-08-22T09:17:51.879Z,96009.69
2022-08-22T09:20:47.569Z,96010.13
2022-08-22T09:23:53.371Z,96012.06
2022-08-22T09:26:35.915Z,96013.63
2022-08-22T09:29:28.989Z,96012.44
2022-08-22T09:32:13.152Z,96016.78
2022-08-22T09:35:01.968Z,96017.50
2022-08-22T09:37:37.434Z,96019.84
2022-08-22T09:40:20.423Z,96009.97
2022-08-22T09:43:28.590Z,96007.97
2022-08-22T09:46:19.021Z,95992.28
2022-08-22T09:49:07.846Z,96000.97
2022-08-22T09:51:56.030Z,95996.31
2022-08-22T09:54:58.057Z,95995.50
2022-08-22T09:58:03.010Z,96006.16
2022-08-22T10:00:47.440Z,96011.28
2022-08-22T10:04:09.644Z,96017.91
2022-08-22T10:06:46.326Z,96017.91
2022-08-22T10:09:31.447Z,96015.19
2022-08-22T10:12:12.432Z,96008.00
2022-08-22T10:14:58.350Z,96012.34
2022-08-22T10:17:40.949Z,96008.91
2022-08-22T10:20:21.255Z,96015.53
2022-08-22T10:23:08.869Z,96002.66
2022-08-22T10:26:22.847Z,95999.53
2022-08-22T10:29:01.191Z,96001.06
2022-08-22T10:31:58.373Z,95998.38
2022-08-22T10:34:36.221Z,95994.03
2022-08-22T10:37:12.026Z,95999.13
2022-08-22T10:39:44.198Z,95999.47
2022-08-22T10:42:28.463Z,96004.16
2022-08-22T10:45:23.703Z,96002.56
2022-08-22T10:48:08.817Z,96003.41
2022-08-22T10:51:12.512Z,95998.72
2022-08-22T10:53:57.935Z,95998.19
2022-08-22T10:56:48.068Z,95991.56
2022-08-22T10:59:33.567Z,95990.31
2022-08-22T11:02:10.231Z,95996.16
2022-08-22T11:04:51.808Z,95997.53
2022-08-22T11:07:41.956Z,95995.56
2022-08-22T11:10:21.748Z,95988.47
2022-08-22T11:13:17.493Z,95990.09
2022-08-22T11:16:16.296Z,95988.91
2022-08-22T11:18:42.899Z,95994.03
2022-08-22T11:22:03.641Z,95989.31
2022-08-22T11:24:58.041Z,95989.22
2022-08-22T11:27:38.400Z,95991.97
2022-08-22T11:30:09.541Z,95993.88
2022-08-22T11:32:44.978Z,95992.34
2022-08-22T11:35:21.890Z,95989.53
2022-08-22T11:37:51.343Z,95992.28
2022-08-22T11:40:23.395Z,95986.72
2022-08-22T11:43:18.164Z,95991.44
2022-08-22T11:45:49.461Z,95982.81
2022-08-22T11:48:25.096Z,95991.44
2022-08-22T11:51:13.726Z,95987.41
2022-08-22T11:54:10.347Z,95994.38
2022-08-22T11:56:50.029Z,95985.00
2022-08-22T11:59:43.123Z,95997.59
2022-08-22T12:02:19.536Z,95999.16
2022-08-22T12:05:03.906Z,96002.25
2022-08-22T12:07:37.646Z,96003.66
2022-08-22T12:10:17.801Z,95990.81
2022-08-22T12:13:04.561Z,95995.25
2022-08-22T12:15:53.873Z,96005.59
2022-08-22T12:18:45.048Z,95997.59
2022-08-22T12:21:32.972Z,96012.25
2022-08-22T12:24:19.278Z,96003.09
2022-08-22T12:26:57.548Z,96000.88
2022-08-22T12:29:51.298Z,96005.22
2022-08-22T12:32:55.144Z,96005.97
2022-08-22T12:35:50.691Z,96013.78
2022-08-22T12:38:30.687Z,96008.72
2022-08-22T12:41:10.863Z,96015.00
2022-08-22T12:43:57.095Z,96008.72
2022-08-22T12:46:47.384Z,96021.28
2022-08-22T12:49:27.201Z,96012.66
2022-08-22T12:52:17.043Z,96011.06
2022-08-22T12:54:57.411Z,96018.19
2022-08-22T12:57:29.734Z,96019.03
2022-08-22T13:00:05.593Z,96022.94
2022-08-22T13:02:36.042Z,96022.13
2022-08-22T13:05:19.513Z,96015.13
2022-08-22T13:07:54.536Z,96021.41
2022-08-22T13:10:27.119Z,96015.13
2022-08-22T13:12:56.431Z,96011.63
2022-08-22T13:15:36.050Z,96022.25
2022-08-22T13:18:29.190Z,96019.50
2022-08-22T13:20:58.325Z,96016.78
2022-08-22T13:23:32.659Z,96019.94
2022-08-22T13:26:03.636Z,96023.06
2022-08-22T13:28:42.057Z,96017.56
2022-08-22T13:31:17.735Z,96018.72
2022-08-22T13:33:48.034Z,96019.91
2022-08-22T13:36:20.062Z,96014.44
2022-08-22T13:39:12.090Z,96020.72
2022-08-22T13:41:51.439Z,96018.34
2022-08-22T13:44:21.269Z,96012.44
2022-08-22T13:47:13.201Z,96015.16
2022-08-22T13:49:42.196Z,96008.06
2022-08-22T13:52:52.303Z,96014.38
2022-08-22T13:55:30.125Z,96012.38
2022-08-22T13:58:42.995Z,96013.91
2022-08-22T14:01:28.420Z,96017.13
2022-08-22T14:04:21.865Z,96013.56
2022-08-22T14:07:03.387Z,96005.75
2022-08-22T14:10:14.882Z,96006.09
2022-08-22T14:12:50.191Z,96009.69
2022-08-22T14:15:26.765Z,96010.00
2022-08-22T14:18:09.600Z,96007.72
2022-08-22T14:20:39.467Z,96015.13
2022-08-22T14:23:09.247Z,96011.19
2022-08-22T14:25:39.186Z,96004.91
2022-08-22T14:28:30.711Z,96002.06
2022-08-22T14:31:04.181Z,96005.72
2022-08-22T14:33:36.599Z,96001.38
2022-08-22T14:36:27.071Z,95997.78
2022-08-22T14:39:01.966Z,95994.63
2022-08-22T14:41:52.448Z,95987.56
2022-08-22T14:44:33.452Z,95980.56
2022-08-22T14:47:04.921Z,95988.06
2022-08-22T14:49:56.301Z,95993.50
2022-08-22T14:52:33.800Z,96001.38
2022-08-22T14:55:30.650Z,96007.28
2022-08-22T14:58:03.419Z,95999.50
2022-08-22T15:00:38.348Z,96001.44
2022-08-22T15:03:33.400Z,95997.78
2022-08-22T15:06:04.567Z,95997.81
2022-08-22T15:08:36.099Z,95998.19
2022-08-22T15:11:36.601Z,95997.78
2022-08-22T15:14:27.186Z,96000.53
2022-08-22T15:16:57.832Z,95996.28
2022-08-22T15:19:34.708Z,95992.66
2022-08-22T15:22:25.765Z,95989.94
2022-08-22T15:25:12.335Z,95989.88
2022-08-22T15:27:48.788Z,95991.50
2022-08-22T15:30:20.362Z,95985.25
2022-08-22T15:32:49.195Z,95993.91
2022-08-22T15:35:30.069Z,95987.63
2022-08-22T15:38:06.943Z,95989.16
2022-08-22T15:40:45.740Z,95996.66
2022-08-22T15:43:35.542Z,95991.88
2022-08-22T15:46:23.110Z,95994.63
2022-08-22T15:48:56.035Z,95988.41
2022-08-22T15:52:12.411Z,95989.16
2022-08-22T15:55:06.920Z,95999.44
2022-08-22T15:57:42.415Z,95993.13
2022-08-22T16:00:33.052Z,95992.34
2022-08-22T16:03:09.178Z,95988.78
2022-08-22T16:05:55.573Z,95998.31
2022-08-22T16:08:33.084Z,95997.94
2022-08-22T16:11:02.952Z,96002.59
2022-08-22T16:13:29.867Z,96003.06
2022-08-22T16:15:57.095Z,96005.78
2022-08-22T16:18:43.270Z,96007.72
2022-08-22T16:21:15.261Z,96020.22
2022-08-22T16:23:51.296Z,96016.63
2022-08-22T16:26:31.565Z,96016.97
2022-08-22T16:29:06.952Z,96025.44
2022-08-22T16:31:39.655Z,96024.31
2022-08-22T16:34:18.419Z,96029.00
2022-08-22T16:37:03.374Z,96029.88
2022-08-22T16:39:36.421Z,96036.22
2022-08-22T16:42:15.171Z,96034.63
2022-08-22T16:44:48.913Z,96034.16
2022-08-22T16:47:30.350Z,96038.00
2022-08-22T16:50:15.479Z,96039.84
2022-08-22T16:53:05.168Z,96036.47
2022-08-22T16:55:32.579Z,96041.28
2022-08-22T16:58:40.030Z,96046.56
2022-08-22T17:01:30.151Z,96040.44
2022-08-22T17:04:13.281Z,96047.59
2022-08-22T17:06:42.726Z,96046.09
2022-08-22T17:09:27.868Z,96040.47
2022-08-22T17:12:18.587Z,96052.66
2022-08-22T17:15:36.928Z,96062.44
2022-08-22T17:18:18.659Z,96059.06
2022-08-22T17:21:30.194Z,96058.66
2022-08-22T17:24:06.798Z,96063.69
2022-08-22T17:27:02.059Z,96064.31
2022-08-22T17:29:43.013Z,96070.41
2022-08-22T17:32:24.282Z,96076.69
2022-08-22T17:35:02.627Z,96068.97
2022-08-22T17:38:01.021Z,96083.59
2022-08-22T17:40:41.754Z,96079.06
2022-08-22T17:43:33.508Z,96083.84
2022-08-22T17:46:44.098Z,96084.56
2022-08-22T17:49:25.675Z,96088.69
2022-08-22T17:52:07.728Z,96087.53
2022-08-22T17:54:52.781Z,96090.72
2022-08-22T17:57:30.930Z,96088.50
2022-08-22T18:00:17.975Z,96086.66
2022-08-22T18:03:01.319Z,96094.50
2022-08-22T18:06:14.664Z,96091.59
2022-08-22T18:11:58.435Z,96095.41
2022-08-22T18:14:40.556Z,96100.66
2022-08-22T18:18:02.605Z,96098.28
2022-08-22T18:20:37.799Z,96100.50
2022-08-22T18:23:28.447Z,96101.75
2022-08-22T18:26:15.681Z,96104.06
2022-08-22T18:29:14.673Z,96096.88
2022-08-22T18:32:08.775Z,96102.56
2022-08-22T18:34:54.844Z,96106.47
2022-08-22T18:37:31.555Z,96105.28
2022-08-22T18:40:06.320Z,96110.38
2022-08-22T18:42:41.803Z,96113.97
2022-08-22T18:47:42.054Z,96116.16
2022-08-22T18:50:34.507Z,96120.16
2022-08-22T18:53:01.884Z,96117.22
2022-08-22T18:55:49.521Z,96124.63
2022-08-22T18:59:06.155Z,96128.66
2022-08-22T19:01:45.047Z,96136.44
2022-08-22T19:04:20.543Z,96129.41
2022-08-22T19:07:25.948Z,96136.47
2022-08-22T19:10:14.758Z,96141.44
2022-08-22T19:13:10.865Z,96149.66
2022-08-22T19:15:56.001Z,96149.53
2022-08-22T19:18:25.367Z,96147.13
2022-08-22T19:21:32.188Z,96148.78
2022-08-22T19:23:59.908Z,96151.03
2022-08-22T19:26:29.434Z,96146.84
2022-08-22T19:29:26.731Z,96142.72
2022-08-22T19:32:00.337Z,96143.91
2022-08-22T19:34:30.085Z,96149.03
2022-08-22T19:37:30.674Z,96156.88
2022-08-22T19:40:01.120Z,96158.47
2022-08-22T19:42:34.741Z,96159.34
2022-08-22T19:45:28.960Z,96157.78
2022-08-22T19:48:00.293Z,96163.16
2022-08-22T19:50:36.193Z,96164.72
2022-08-22T19:53:39.846Z,96158.41
2022-08-22T19:56:31.056Z,96162.44
2022-08-22T19:59:20.133Z,96154.31
2022-08-22T20:01:49.681Z,96162.91
2022-08-22T20:04:42.804Z,96153.56
2022-08-22T20:07:31.219Z,96144.44
2022-08-22T20:10:28.150Z,96154.94
2022-08-22T20:13:04.294Z,96150.81
2022-08-22T20:15:34.140Z,96150.38
2022-08-22T20:21:00.376Z,96135.78
2022-08-22T20:23:30.890Z,96132.66
2022-08-22T20:25:58.856Z,96128.69
2022-08-22T20:28:45.072Z,96129.25
2022-08-22T20:31:20.968Z,96116.81
2022-08-22T20:33:56.679Z,96117.41
2022-08-22T20:36:28.549Z,96109.88
2022-08-22T20:39:04.985Z,96108.94
2022-08-22T20:41:39.644Z,96110.13
2022-08-22T20:44:29.780Z,96102.44
2022-08-22T20:47:04.320Z,96094.13
2022-08-22T20:49:45.977Z,96095.88
2022-08-22T20:52:30.692Z,96093.97
2022-08-22T20:55:13.624Z,96095.06
2022-08-22T20:57:55.941Z,96093.91
2022-08-22T21:00:30.639Z,96095.88
2022-08-22T21:03:07.742Z,96096.22
2022-08-22T21:05:40.427Z,96088.19
2022-08-22T21:08:09.157Z,96082.81
2022-08-22T21:10:57.017Z,96084.16
2022-08-22T21:13:32.489Z,96079.78
2022-08-22T21:16:05.169Z,96088.28
2022-08-22T21:18:34.891Z,96110.69
2022-08-22T21:21:17.128Z,96088.28
2022-08-22T21:24:06.329Z,96090.94
2022-08-22T21:26:38.571Z,96085.31
2022-08-22T21:29:18.327Z,96097.97
2022-08-22T21:32:04.540Z,96101.66
2022-08-22T21:34:52.163Z,96100.59
2022-08-22T21:37:38.293Z,96102.59
2022-08-22T21:40:18.085Z,96098.00
2022-08-22T21:43:00.838Z,96107.47
2022-08-22T21:45:35.735Z,96100.31
2022-08-22T21:48:02.735Z,96100.31
2022-08-22T21:50:38.458Z,96103.88
2022-08-22T21:53:10.282Z,96099.34
2022-08-22T21:55:47.107Z,96104.03
2022-08-22T21:58:35.649Z,96102.63
2022-08-22T22:01:27.881Z,96101.75
2022-08-22T22:03:55.429Z,96097.09
2022-08-22T22:06:22.087Z,96103.09
2022-08-22T22:08:49.103Z,96096.00
2022-08-22T22:11:16.501Z,96097.22
2022-08-22T22:13:43.554Z,96099.22
2022-08-22T22:16:14.744Z,96092.88
2022-08-22T22:18:41.476Z,96087.09
2022-08-22T22:21:08.942Z,96093.94
2022-08-22T22:23:35.628Z,96086.81
2022-08-22T22:26:04.838Z,96091.06
2022-08-22T22:28:36.122Z,96089.63
2022-08-22T22:31:03.651Z,96096.59
2022-08-22T22:33:33.511Z,96092.97
2022-08-22T22:36:16.097Z,96094.41
2022-08-22T22:38:42.901Z,96106.63
2022-08-22T22:41:11.251Z,96087.97
2022-08-22T22:43:37.913Z,96084.94
2022-08-22T22:46:04.882Z,96085.69
2022-08-22T22:48:32.131Z,96079.13
2022-08-22T22:50:58.847Z,96071.25
2022-08-22T22:53:37.954Z,96072.13
2022-08-22T22:56:09.666Z,96074.72
2022-08-22T22:58:37.691Z,96073.91
2022-08-22T23:01:10.226Z,96077.91
2022-08-22T23:03:37.070Z,96075.06
2022-08-22T23:06:03.891Z,96078.63
2022-08-22T23:08:30.684Z,96076.22
2022-08-22T23:10:57.515Z,96076.63
2022-08-22T23:13:24.210Z,96078.06
2022-08-22T23:15:50.849Z,96077.38
2022-08-22T23:18:17.575Z,96084.63
2022-08-22T23:20:47.535Z,96085.31
2022-08-22T23:23:14.193Z,96085.72
2022-08-22T23:25:40.835Z,96085.91
2022-08-22T23:28:07.533Z,96081.53
2022-08-22T23:30:34.183Z,96094.66
2022-08-22T23:33:01.122Z,96094.06
2022-08-22T23:35:27.880Z,96095.25
2022-08-22T23:37:54.519Z,96095.28
2022-08-22T23:40:21.260Z,96087.69
2022-08-22T23:42:48.047Z,96087.34
2022-08-22T23:45:14.745Z,96087.06
2022-08-22T23:47:41.400Z,96090.25
2022-08-22T23:50:08.526Z,96092.63
2022-08-22T23:52:35.295Z,96088.41
2022-08-22T23:55:01.928Z,96091.84
2022-08-22T23:57:29.458Z,96091.63
2022-08-22T23:59:57.750Z,96094.91
